Arctic Bay — 9HTD8 — position and weather

sailwx.info

Track history (hours):
 
Tides and Currents Weather Stations Pressure Air Temp Water Temp Dewpoint Dewpoint Depression Visibility Wind Speed Wind Dir Waves Ship Positions

Arctic Bay

Last reported at 2015-Jan-26 05:17 UTC. Time now 2015-Jan-27 16:58 UTC.
Position N 55°35' E 015°12'.

Length 182 m; draft 7 m.

Type: Tanker. MMSI: 256396000.

Date/timePositionNaut miles runAvg speedWind from/ knotsBaromVisibWave heightAir tempDewpointWater temp
2015-Jan-26 05:17N 55°35' E 015°12'811.2
2015-Jan-26 04:33N 55°31' E 014°59'1111.1
2015-Jan-26 03:33N 55°25' E 014°42'1111.0
2015-Jan-26 02:33N 55°17' E 014°29'1110.7
2015-Jan-26 01:33N 55°10' E 014°15'1110.5
2015-Jan-26 00:30N 55°11' E 013°55'1111.2
2015-Jan-25 23:33N 55°12' E 013°37'1310.8
2015-Jan-25 22:19N 55°13' E 013°14'810.8
2015-Jan-25 21:33N 55°14' E 012°59'1110.7
2015-Jan-25 20:33N 55°18' E 012°41'9 9.4
2015-Jan-25 19:33N 55°27' E 012°41'10 9.8
2015-Jan-25 18:33N 55°37' E 012°42'1111.5
2015-Jan-25 17:33N 55°48' E 012°42'1212.3
2015-Jan-25 16:33N 56°00' E 012°38'9 9.5
2015-Jan-25 15:33N 56°08' E 012°28'1010.5
2015-Jan-25 14:33N 56°14' E 012°13'1010.0
2015-Jan-25 13:33N 56°22' E 012°02'1510.9
2015-Jan-25 12:13N 56°36' E 011°56'711.3
2015-Jan-25 11:33N 56°43' E 011°53'1110.6
2015-Jan-25 10:33N 56°54' E 011°47'1110.9
2015-Jan-25 09:33N 57°04' E 011°40'1111.2
2015-Jan-25 08:33N 57°14' E 011°33'1212.4
2015-Jan-25 07:33N 57°26' E 011°25'1110.6
2015-Jan-25 06:33N 57°34' E 011°12'1111.4
2015-Jan-25 05:33N 57°41' E 010°56'1111.5
2015-Jan-25 04:33N 57°47' E 010°37'1412.1
2015-Jan-25 03:24N 57°47' E 010°11'16510.2
2015-Jan-24 11:11N 55°38' E 007°03'6 9.4
2015-Jan-24 10:33N 55°32' E 007°03'10 9.5
2015-Jan-24 09:33N 55°23' E 007°04'10 9.5
2015-Jan-24 08:33N 55°13' E 007°03'10 9.8
2015-Jan-24 07:33N 55°04' E 007°03'1111.0
2015-Jan-24 06:33N 54°53' E 007°05'1211.7
2015-Jan-24 05:31N 54°41' E 007°10'1111.7
2015-Jan-24 04:33N 54°30' E 007°17'1211.9
2015-Jan-24 03:33N 54°19' E 007°25'1111.5
2015-Jan-24 02:34N 54°11' E 007°38'1111.1
2015-Jan-24 01:33N 54°05' E 007°54'1010.0
2015-Jan-24 00:33N 54°01' E 008°10'1110.9
2015-Jan-23 23:33N 53°59' E 008°28'1110.9
2015-Jan-23 22:33N 53°53' E 008°43'1313.4
2015-Jan-23 21:33N 53°53' E 009°06'1211.5
2015-Jan-23 20:33N 53°47' E 009°23'1514.9
2015-Jan-23 19:33N 53°35' E 009°37'1211.6
2015-Jan-23 18:34N 53°32' E 009°56'2 2.0
2015-Jan-23 17:32N 53°30' E 009°57'0 0.0
2015-Jan-23 16:33N 53°30' E 009°57'0 0.0
2015-Jan-23 15:27N 53°30' E 009°57'0 0.0
2015-Jan-23 14:26N 53°30' E 009°57'0 0.0
2015-Jan-23 13:32N 53°30' E 009°57'0 0.0
2015-Jan-23 12:32N 53°30' E 009°57'0 0.0
2015-Jan-23 11:32N 53°30' E 009°57'0 0.0
2015-Jan-23 10:32N 53°30' E 009°57'0 0.0
2015-Jan-23 09:29N 53°30' E 009°57'0 0.0
2015-Jan-23 08:32N 53°30' E 009°57'0 0.0
2015-Jan-23 07:32N 53°30' E 009°57'0 0.0
2015-Jan-23 06:32N 53°30' E 009°57'0 0.0
2015-Jan-23 05:26N 53°30' E 009°57'0 0.0
2015-Jan-23 04:32N 53°30' E 009°57'0 0.0
2015-Jan-23 03:29N 53°30' E 009°57'0 0.0
2015-Jan-23 02:32N 53°30' E 009°57'0 0.2
2015-Jan-23 01:24N 53°30' E 009°57'0 0.0
2015-Jan-23 00:33N 53°30' E 009°57'0 0.0
2015-Jan-22 23:33N 53°30' E 009°57'0 0.0
2015-Jan-22 22:33N 53°30' E 009°57'0 0.0
2015-Jan-22 21:33N 53°30' E 009°57'0 0.0
2015-Jan-22 20:32N 53°30' E 009°57'0 0.0
2015-Jan-22 19:33N 53°30' E 009°57'0 0.0
2015-Jan-22 18:33N 53°30' E 009°57'0 0.0
2015-Jan-22 17:33N 53°30' E 009°57'0 0.0
2015-Jan-22 16:33N 53°30' E 009°57'0 0.0
2015-Jan-22 15:27N 53°30' E 009°57'0 0.0
2015-Jan-22 14:27N 53°30' E 009°57'0 0.0
2015-Jan-22 13:21N 53°30' E 009°57'0 0.0
2015-Jan-22 12:33N 53°30' E 009°57'0 0.0
2015-Jan-22 11:33N 53°30' E 009°57'0 0.0
2015-Jan-22 10:27N 53°30' E 009°57'0 0.0
2015-Jan-22 09:30N 53°30' E 009°57'0 0.0
2015-Jan-22 08:26N 53°30' E 009°57'0 0.0
2015-Jan-22 07:33N 53°30' E 009°57'0 0.0
2015-Jan-22 06:33N 53°30' E 009°57'0 0.0
2015-Jan-22 05:33N 53°30' E 009°57'0 0.0
2015-Jan-22 04:33N 53°30' E 009°57'0 0.0
2015-Jan-22 03:33N 53°30' E 009°57'0 0.0
2015-Jan-22 02:30N 53°30' E 009°57'0 0.0
2015-Jan-22 01:33N 53°30' E 009°57'0 0.0
2015-Jan-22 00:33N 53°30' E 009°57'0 0.0
2015-Jan-21 23:33N 53°30' E 009°57'0 0.0
2015-Jan-21 22:48N 53°30' E 009°57'0 0.0
2015-Jan-21 22:42N 53°30' E 009°57'0 0.0
2015-Jan-21 22:33N 53°30' E 009°57'0 0.0
2015-Jan-21 21:33N 53°30' E 009°57'0 0.0
2015-Jan-21 20:27N 53°30' E 009°57'0 0.0
2015-Jan-21 19:33N 53°30' E 009°57'0 0.0
2015-Jan-21 18:32N 53°30' E 009°57'0 0.0
2015-Jan-21 17:33N 53°30' E 009°57'0 0.0
2015-Jan-21 16:32N 53°30' E 009°57'0 0.0
2015-Jan-21 15:33N 53°30' E 009°57'4 4.4
2015-Jan-21 14:33N 53°33' E 009°51'1010.2
2015-Jan-21 13:33N 53°36' E 009°35'1010.4
2015-Jan-21 12:34N 53°45' E 009°25'1212.1
2015-Jan-21 11:33N 53°53' E 009°10'1212.3
2015-Jan-21 10:34N 53°50' E 008°50'1313.1
2015-Jan-21 09:34N 53°58' E 008°32'1414.2
2015-Jan-21 08:34N 53°59' E 008°08'1111.5
2015-Jan-21 07:34N 54°03' E 007°49'1 0.7
2015-Jan-21 06:33N 54°03' E 007°48'2 1.6
2015-Jan-21 05:33N 54°04' E 007°50'9 9.4
2015-Jan-21 04:33N 54°09' E 007°37'1212.1
2015-Jan-21 03:33N 54°19' E 007°25'1212.2
2015-Jan-21 02:34N 54°30' E 007°17'1712.5
2015-Jan-21 01:14N 54°46' E 007°08'812.2
2015-Jan-21 00:33N 54°54' E 007°05'1212.5
2015-Jan-20 23:33N 55°06' E 007°01'1312.9
2015-Jan-20 22:33N 55°19' E 007°00'1313.0
2015-Jan-20 21:34N 55°32' E 006°60'18111.2
2015-Jan-20 05:24N 57°41' E 010°50'1112.7
2015-Jan-20 04:33N 57°36' E 011°09'1312.6
2015-Jan-20 03:33N 57°27' E 011°26'1312.7
2015-Jan-20 02:32N 57°15' E 011°34'1313.5
2015-Jan-20 01:32N 57°03' E 011°42'1313.5
2015-Jan-20 00:33N 56°50' E 011°52'1212.3
2015-Jan-19 23:33N 56°39' E 011°46'12012.7
2015-Jan-19 14:11N 54°44' E 010°47'1212.6
2015-Jan-19 13:16N 54°36' E 011°02'1013.6
2015-Jan-19 12:33N 54°34' E 011°18'1413.9
2015-Jan-19 11:33N 54°28' E 011°40'1413.7
2015-Jan-19 10:33N 54°26' E 012°03'1211.7
2015-Jan-19 09:33N 54°35' E 012°16'1111.2
2015-Jan-19 08:33N 54°42' E 012°32'1212.0
2015-Jan-19 07:33N 54°48' E 012°50'1212.0
2015-Jan-19 06:33N 54°53' E 013°09'1212.3
2015-Jan-19 05:33N 54°57' E 013°29'1212.2
2015-Jan-19 04:33N 55°01' E 013°49'1111.3
2015-Jan-19 03:33N 55°06' E 014°06'1312.8
2015-Jan-19 02:33N 55°16' E 014°21'1313.1
2015-Jan-19 01:33N 55°26' E 014°36'1212.5
2015-Jan-19 00:33N 55°32' E 014°55'1312.3
2015-Jan-18 23:30N 55°38' E 015°16'38611.4
2015-Jan-17 13:33N 59°47' E 024°28'6512.9
2015-Jan-17 08:33N 60°01' E 026°33'  
Track history (hours):
 
Tides and Currents Weather Stations Pressure Air Temp Water Temp Dewpoint Dewpoint Depression Visibility Wind Speed Wind Dir Waves Ship Positions

Arctic Bay

Last reported at 2015-Jan-26 05:17 UTC. Time now 2015-Jan-27 16:58 UTC.
Position N 55°35' E 015°12'.

Length 182 m; draft 7 m.

Type: Tanker. MMSI: 256396000.

Date/timePositionNaut miles runAvg speedWind from/ knotsBaromVisibWave heightAir tempDewpointWater temp
2015-Jan-26 05:17N 55°35' E 015°12'811.2
2015-Jan-26 04:33N 55°31' E 014°59'1111.1
2015-Jan-26 03:33N 55°25' E 014°42'1111.0
2015-Jan-26 02:33N 55°17' E 014°29'1110.7
2015-Jan-26 01:33N 55°10' E 014°15'1110.5
2015-Jan-26 00:30N 55°11' E 013°55'1111.2
2015-Jan-25 23:33N 55°12' E 013°37'1310.8
2015-Jan-25 22:19N 55°13' E 013°14'810.8
2015-Jan-25 21:33N 55°14' E 012°59'1110.7
2015-Jan-25 20:33N 55°18' E 012°41'9 9.4
2015-Jan-25 19:33N 55°27' E 012°41'10 9.8
2015-Jan-25 18:33N 55°37' E 012°42'1111.5
2015-Jan-25 17:33N 55°48' E 012°42'1212.3
2015-Jan-25 16:33N 56°00' E 012°38'9 9.5
2015-Jan-25 15:33N 56°08' E 012°28'1010.5
2015-Jan-25 14:33N 56°14' E 012°13'1010.0
2015-Jan-25 13:33N 56°22' E 012°02'1510.9
2015-Jan-25 12:13N 56°36' E 011°56'711.3
2015-Jan-25 11:33N 56°43' E 011°53'1110.6
2015-Jan-25 10:33N 56°54' E 011°47'1110.9
2015-Jan-25 09:33N 57°04' E 011°40'1111.2
2015-Jan-25 08:33N 57°14' E 011°33'1212.4
2015-Jan-25 07:33N 57°26' E 011°25'1110.6
2015-Jan-25 06:33N 57°34' E 011°12'1111.4
2015-Jan-25 05:33N 57°41' E 010°56'1111.5
2015-Jan-25 04:33N 57°47' E 010°37'1412.1
2015-Jan-25 03:24N 57°47' E 010°11'16510.2
2015-Jan-24 11:11N 55°38' E 007°03'6 9.4
2015-Jan-24 10:33N 55°32' E 007°03'10 9.5
2015-Jan-24 09:33N 55°23' E 007°04'10 9.5
2015-Jan-24 08:33N 55°13' E 007°03'10 9.8
2015-Jan-24 07:33N 55°04' E 007°03'1111.0
2015-Jan-24 06:33N 54°53' E 007°05'1211.7
2015-Jan-24 05:31N 54°41' E 007°10'1111.7
2015-Jan-24 04:33N 54°30' E 007°17'1211.9
2015-Jan-24 03:33N 54°19' E 007°25'1111.5
2015-Jan-24 02:34N 54°11' E 007°38'1111.1
2015-Jan-24 01:33N 54°05' E 007°54'1010.0
2015-Jan-24 00:33N 54°01' E 008°10'1110.9
2015-Jan-23 23:33N 53°59' E 008°28'1110.9
2015-Jan-23 22:33N 53°53' E 008°43'1313.4
2015-Jan-23 21:33N 53°53' E 009°06'1211.5
2015-Jan-23 20:33N 53°47' E 009°23'1514.9
2015-Jan-23 19:33N 53°35' E 009°37'1211.6
2015-Jan-23 18:34N 53°32' E 009°56'2 2.0
2015-Jan-23 17:32N 53°30' E 009°57'0 0.0
2015-Jan-23 16:33N 53°30' E 009°57'0 0.0
2015-Jan-23 15:27N 53°30' E 009°57'0 0.0
2015-Jan-23 14:26N 53°30' E 009°57'0 0.0
2015-Jan-23 13:32N 53°30' E 009°57'0 0.0
2015-Jan-23 12:32N 53°30' E 009°57'0 0.0
2015-Jan-23 11:32N 53°30' E 009°57'0 0.0
2015-Jan-23 10:32N 53°30' E 009°57'0 0.0
2015-Jan-23 09:29N 53°30' E 009°57'0 0.0
2015-Jan-23 08:32N 53°30' E 009°57'0 0.0
2015-Jan-23 07:32N 53°30' E 009°57'0 0.0
2015-Jan-23 06:32N 53°30' E 009°57'0 0.0
2015-Jan-23 05:26N 53°30' E 009°57'0 0.0
2015-Jan-23 04:32N 53°30' E 009°57'0 0.0
2015-Jan-23 03:29N 53°30' E 009°57'0 0.0
2015-Jan-23 02:32N 53°30' E 009°57'0 0.2
2015-Jan-23 01:24N 53°30' E 009°57'0 0.0
2015-Jan-23 00:33N 53°30' E 009°57'0 0.0
2015-Jan-22 23:33N 53°30' E 009°57'0 0.0
2015-Jan-22 22:33N 53°30' E 009°57'0 0.0
2015-Jan-22 21:33N 53°30' E 009°57'0 0.0
2015-Jan-22 20:32N 53°30' E 009°57'0 0.0
2015-Jan-22 19:33N 53°30' E 009°57'0 0.0
2015-Jan-22 18:33N 53°30' E 009°57'0 0.0
2015-Jan-22 17:33N 53°30' E 009°57'0 0.0
2015-Jan-22 16:33N 53°30' E 009°57'0 0.0
2015-Jan-22 15:27N 53°30' E 009°57'0 0.0
2015-Jan-22 14:27N 53°30' E 009°57'0 0.0
2015-Jan-22 13:21N 53°30' E 009°57'0 0.0
2015-Jan-22 12:33N 53°30' E 009°57'0 0.0
2015-Jan-22 11:33N 53°30' E 009°57'0 0.0
2015-Jan-22 10:27N 53°30' E 009°57'0 0.0
2015-Jan-22 09:30N 53°30' E 009°57'0 0.0
2015-Jan-22 08:26N 53°30' E 009°57'0 0.0
2015-Jan-22 07:33N 53°30' E 009°57'0 0.0
2015-Jan-22 06:33N 53°30' E 009°57'0 0.0
2015-Jan-22 05:33N 53°30' E 009°57'0 0.0
2015-Jan-22 04:33N 53°30' E 009°57'0 0.0
2015-Jan-22 03:33N 53°30' E 009°57'0 0.0
2015-Jan-22 02:30N 53°30' E 009°57'0 0.0
2015-Jan-22 01:33N 53°30' E 009°57'0 0.0
2015-Jan-22 00:33N 53°30' E 009°57'0 0.0
2015-Jan-21 23:33N 53°30' E 009°57'0 0.0
2015-Jan-21 22:48N 53°30' E 009°57'0 0.0
2015-Jan-21 22:42N 53°30' E 009°57'0 0.0
2015-Jan-21 22:33N 53°30' E 009°57'0 0.0
2015-Jan-21 21:33N 53°30' E 009°57'0 0.0
2015-Jan-21 20:27N 53°30' E 009°57'0 0.0
2015-Jan-21 19:33N 53°30' E 009°57'0 0.0
2015-Jan-21 18:32N 53°30' E 009°57'0 0.0
2015-Jan-21 17:33N 53°30' E 009°57'0 0.0
2015-Jan-21 16:32N 53°30' E 009°57'0 0.0
2015-Jan-21 15:33N 53°30' E 009°57'4 4.4
2015-Jan-21 14:33N 53°33' E 009°51'1010.2
2015-Jan-21 13:33N 53°36' E 009°35'1010.4
2015-Jan-21 12:34N 53°45' E 009°25'1212.1
2015-Jan-21 11:33N 53°53' E 009°10'1212.3
2015-Jan-21 10:34N 53°50' E 008°50'1313.1
2015-Jan-21 09:34N 53°58' E 008°32'1414.2
2015-Jan-21 08:34N 53°59' E 008°08'1111.5
2015-Jan-21 07:34N 54°03' E 007°49'1 0.7
2015-Jan-21 06:33N 54°03' E 007°48'2 1.6
2015-Jan-21 05:33N 54°04' E 007°50'9 9.4
2015-Jan-21 04:33N 54°09' E 007°37'1212.1
2015-Jan-21 03:33N 54°19' E 007°25'1212.2
2015-Jan-21 02:34N 54°30' E 007°17'1712.5
2015-Jan-21 01:14N 54°46' E 007°08'812.2
2015-Jan-21 00:33N 54°54' E 007°05'1212.5
2015-Jan-20 23:33N 55°06' E 007°01'1312.9
2015-Jan-20 22:33N 55°19' E 007°00'1313.0
2015-Jan-20 21:34N 55°32' E 006°60'18111.2
2015-Jan-20 05:24N 57°41' E 010°50'1112.7
2015-Jan-20 04:33N 57°36' E 011°09'1312.6
2015-Jan-20 03:33N 57°27' E 011°26'1312.7
2015-Jan-20 02:32N 57°15' E 011°34'1313.5
2015-Jan-20 01:32N 57°03' E 011°42'1313.5
2015-Jan-20 00:33N 56°50' E 011°52'1212.3
2015-Jan-19 23:33N 56°39' E 011°46'12012.7
2015-Jan-19 14:11N 54°44' E 010°47'1212.6
2015-Jan-19 13:16N 54°36' E 011°02'1013.6
2015-Jan-19 12:33N 54°34' E 011°18'1413.9
2015-Jan-19 11:33N 54°28' E 011°40'1413.7
2015-Jan-19 10:33N 54°26' E 012°03'1211.7
2015-Jan-19 09:33N 54°35' E 012°16'1111.2
2015-Jan-19 08:33N 54°42' E 012°32'1212.0
2015-Jan-19 07:33N 54°48' E 012°50'1212.0
2015-Jan-19 06:33N 54°53' E 013°09'1212.3
2015-Jan-19 05:33N 54°57' E 013°29'1212.2
2015-Jan-19 04:33N 55°01' E 013°49'1111.3
2015-Jan-19 03:33N 55°06' E 014°06'1312.8
2015-Jan-19 02:33N 55°16' E 014°21'1313.1
2015-Jan-19 01:33N 55°26' E 014°36'1212.5
2015-Jan-19 00:33N 55°32' E 014°55'1312.3
2015-Jan-18 23:30N 55°38' E 015°16'38611.4
2015-Jan-17 13:33N 59°47' E 024°28'6512.9
2015-Jan-17 08:33N 60°01' E 026°33'  

Dump ship's entire track history